sensor_id;sensor_type;location;lat;lon;timestamp;P1;durP1;ratioP1;P2;durP2;ratioP2
78005;SDS011;67211;42.146;24.756;2023-05-07T00:01:00;7.15;;;4.70;;
78005;SDS011;67211;42.146;24.756;2023-05-07T00:03:26;11.02;;;5.00;;
78005;SDS011;67211;42.146;24.756;2023-05-07T00:05:52;5.85;;;4.93;;
78005;SDS011;67211;42.146;24.756;2023-05-07T00:08:18;5.20;;;4.10;;
78005;SDS011;67211;42.146;24.756;2023-05-07T00:10:43;7.10;;;4.20;;
78005;SDS011;67211;42.146;24.756;2023-05-07T00:13:09;6.80;;;4.40;;
78005;SDS011;67211;42.146;24.756;2023-05-07T00:15:35;6.97;;;5.05;;
78005;SDS011;67211;42.146;24.756;2023-05-07T00:18:00;7.53;;;5.00;;
78005;SDS011;67211;42.146;24.756;2023-05-07T00:20:26;6.60;;;4.68;;
78005;SDS011;67211;42.146;24.756;2023-05-07T00:22:51;7.88;;;4.70;;
78005;SDS011;67211;42.146;24.756;2023-05-07T00:25:18;7.45;;;4.57;;
78005;SDS011;67211;42.146;24.756;2023-05-07T00:27:44;7.13;;;5.18;;
78005;SDS011;67211;42.146;24.756;2023-05-07T00:30:10;7.05;;;4.53;;
78005;SDS011;67211;42.146;24.756;2023-05-07T00:32:36;6.32;;;4.28;;
78005;SDS011;67211;42.146;24.756;2023-05-07T00:35:02;6.40;;;4.40;;
78005;SDS011;67211;42.146;24.756;2023-05-07T00:37:28;9.13;;;5.28;;
78005;SDS011;67211;42.146;24.756;2023-05-07T00:39:53;5.75;;;4.15;;
78005;SDS011;67211;42.146;24.756;2023-05-07T00:42:18;8.65;;;4.80;;
78005;SDS011;67211;42.146;24.756;2023-05-07T00:44:44;6.28;;;4.60;;
78005;SDS011;67211;42.146;24.756;2023-05-07T00:47:09;9.25;;;4.78;;
78005;SDS011;67211;42.146;24.756;2023-05-07T00:49:37;8.40;;;5.10;;
78005;SDS011;67211;42.146;24.756;2023-05-07T00:52:05;7.03;;;4.75;;
78005;SDS011;67211;42.146;24.756;2023-05-07T00:54:31;6.82;;;4.88;;
78005;SDS011;67211;42.146;24.756;2023-05-07T00:56:57;5.97;;;4.30;;
78005;SDS011;67211;42.146;24.756;2023-05-07T00:59:23;6.68;;;4.18;;
78005;SDS011;67211;42.146;24.756;2023-05-07T01:01:48;5.82;;;4.28;;
78005;SDS011;67211;42.146;24.756;2023-05-07T01:04:13;7.50;;;5.18;;
78005;SDS011;67211;42.146;24.756;2023-05-07T01:06:39;8.32;;;4.47;;
78005;SDS011;67211;42.146;24.756;2023-05-07T01:09:05;5.80;;;4.45;;
78005;SDS011;67211;42.146;24.756;2023-05-07T01:11:31;6.15;;;4.43;;
78005;SDS011;67211;42.146;24.756;2023-05-07T01:13:56;7.47;;;4.43;;
78005;SDS011;67211;42.146;24.756;2023-05-07T01:16:23;6.22;;;5.07;;
78005;SDS011;67211;42.146;24.756;2023-05-07T01:18:49;9.30;;;5.15;;
78005;SDS011;67211;42.146;24.756;2023-05-07T01:21:15;6.78;;;5.05;;
78005;SDS011;67211;42.146;24.756;2023-05-07T01:23:41;7.05;;;5.15;;
78005;SDS011;67211;42.146;24.756;2023-05-07T01:26:07;7.40;;;4.97;;
78005;SDS011;67211;42.146;24.756;2023-05-07T01:28:32;8.45;;;5.10;;
78005;SDS011;67211;42.146;24.756;2023-05-07T01:31:02;6.68;;;4.32;;
78005;SDS011;67211;42.146;24.756;2023-05-07T01:33:29;6.63;;;4.88;;
78005;SDS011;67211;42.146;24.756;2023-05-07T01:35:58;7.70;;;5.47;;
78005;SDS011;67211;42.146;24.756;2023-05-07T01:38:26;7.40;;;5.28;;
78005;SDS011;67211;42.146;24.756;2023-05-07T01:40:52;6.65;;;4.63;;
78005;SDS011;67211;42.146;24.756;2023-05-07T01:43:18;7.88;;;5.18;;
78005;SDS011;67211;42.146;24.756;2023-05-07T01:45:44;6.25;;;5.60;;
78005;SDS011;67211;42.146;24.756;2023-05-07T01:48:10;9.52;;;5.13;;
78005;SDS011;67211;42.146;24.756;2023-05-07T01:50:36;6.93;;;5.25;;
78005;SDS011;67211;42.146;24.756;2023-05-07T01:53:01;7.90;;;5.22;;
78005;SDS011;67211;42.146;24.756;2023-05-07T01:55:27;9.07;;;5.90;;
78005;SDS011;67211;42.146;24.756;2023-05-07T01:57:52;9.75;;;7.55;;
78005;SDS011;67211;42.146;24.756;2023-05-07T02:00:18;12.98;;;7.60;;
78005;SDS011;67211;42.146;24.756;2023-05-07T02:02:44;10.27;;;7.25;;
78005;SDS011;67211;42.146;24.756;2023-05-07T02:05:09;10.65;;;7.47;;
78005;SDS011;67211;42.146;24.756;2023-05-07T02:07:35;13.20;;;9.75;;
78005;SDS011;67211;42.146;24.756;2023-05-07T02:10:00;10.13;;;7.55;;
78005;SDS011;67211;42.146;24.756;2023-05-07T02:12:25;9.93;;;7.18;;
78005;SDS011;67211;42.146;24.756;2023-05-07T02:14:51;7.43;;;6.07;;
78005;SDS011;67211;42.146;24.756;2023-05-07T02:17:16;8.00;;;6.53;;
78005;SDS011;67211;42.146;24.756;2023-05-07T02:19:42;9.00;;;6.82;;
78005;SDS011;67211;42.146;24.756;2023-05-07T02:22:07;9.13;;;6.72;;
78005;SDS011;67211;42.146;24.756;2023-05-07T02:24:34;7.88;;;6.32;;
78005;SDS011;67211;42.146;24.756;2023-05-07T02:27:00;8.30;;;6.15;;
78005;SDS011;67211;42.146;24.756;2023-05-07T02:29:26;8.55;;;6.10;;
78005;SDS011;67211;42.146;24.756;2023-05-07T02:31:51;11.32;;;6.68;;
78005;SDS011;67211;42.146;24.756;2023-05-07T02:34:18;12.00;;;6.85;;
78005;SDS011;67211;42.146;24.756;2023-05-07T02:36:44;9.27;;;6.60;;
78005;SDS011;67211;42.146;24.756;2023-05-07T02:39:10;8.18;;;6.38;;
78005;SDS011;67211;42.146;24.756;2023-05-07T02:41:36;9.88;;;6.93;;
78005;SDS011;67211;42.146;24.756;2023-05-07T02:44:02;8.63;;;6.50;;
78005;SDS011;67211;42.146;24.756;2023-05-07T02:46:27;9.68;;;6.85;;
78005;SDS011;67211;42.146;24.756;2023-05-07T02:48:53;10.85;;;6.30;;
78005;SDS011;67211;42.146;24.756;2023-05-07T02:51:21;9.30;;;6.03;;
78005;SDS011;67211;42.146;24.756;2023-05-07T02:53:47;10.85;;;6.15;;
78005;SDS011;67211;42.146;24.756;2023-05-07T02:56:13;10.90;;;7.07;;
78005;SDS011;67211;42.146;24.756;2023-05-07T02:58:38;8.82;;;5.63;;
78005;SDS011;67211;42.146;24.756;2023-05-07T03:01:09;9.40;;;6.65;;
78005;SDS011;67211;42.146;24.756;2023-05-07T03:03:35;9.50;;;6.35;;
78005;SDS011;67211;42.146;24.756;2023-05-07T03:06:00;9.15;;;6.13;;
78005;SDS011;67211;42.146;24.756;2023-05-07T03:08:26;7.70;;;6.50;;
78005;SDS011;67211;42.146;24.756;2023-05-07T03:10:51;7.70;;;6.18;;
78005;SDS011;67211;42.146;24.756;2023-05-07T03:13:17;8.93;;;6.35;;
78005;SDS011;67211;42.146;24.756;2023-05-07T03:15:42;8.27;;;6.13;;
78005;SDS011;67211;42.146;24.756;2023-05-07T03:18:07;10.32;;;7.07;;
78005;SDS011;67211;42.146;24.756;2023-05-07T03:20:33;8.80;;;6.90;;
78005;SDS011;67211;42.146;24.756;2023-05-07T03:22:58;8.48;;;6.40;;
78005;SDS011;67211;42.146;24.756;2023-05-07T03:25:24;8.88;;;6.60;;
78005;SDS011;67211;42.146;24.756;2023-05-07T03:27:49;12.68;;;7.05;;
78005;SDS011;67211;42.146;24.756;2023-05-07T03:30:15;9.80;;;7.03;;
78005;SDS011;67211;42.146;24.756;2023-05-07T03:32:40;11.00;;;7.00;;
78005;SDS011;67211;42.146;24.756;2023-05-07T03:35:06;11.52;;;7.55;;
78005;SDS011;67211;42.146;24.756;2023-05-07T03:37:32;11.30;;;7.20;;
78005;SDS011;67211;42.146;24.756;2023-05-07T03:39:57;9.15;;;7.18;;
78005;SDS011;67211;42.146;24.756;2023-05-07T03:42:23;11.80;;;7.80;;
78005;SDS011;67211;42.146;24.756;2023-05-07T03:44:48;9.50;;;8.50;;
78005;SDS011;67211;42.146;24.756;2023-05-07T03:47:14;11.02;;;7.35;;
78005;SDS011;67211;42.146;24.756;2023-05-07T03:49:39;8.75;;;7.00;;
78005;SDS011;67211;42.146;24.756;2023-05-07T03:52:05;9.55;;;7.15;;
78005;SDS011;67211;42.146;24.756;2023-05-07T03:54:30;9.88;;;7.13;;
78005;SDS011;67211;42.146;24.756;2023-05-07T03:56:56;10.55;;;7.63;;
78005;SDS011;67211;42.146;24.756;2023-05-07T03:59:21;9.32;;;7.43;;
78005;SDS011;67211;42.146;24.756;2023-05-07T04:01:47;14.07;;;7.50;;
78005;SDS011;67211;42.146;24.756;2023-05-07T04:04:13;10.35;;;7.88;;
78005;SDS011;67211;42.146;24.756;2023-05-07T04:06:39;10.98;;;8.23;;
78005;SDS011;67211;42.146;24.756;2023-05-07T04:09:05;10.80;;;8.48;;
78005;SDS011;67211;42.146;24.756;2023-05-07T04:11:30;11.15;;;8.55;;
78005;SDS011;67211;42.146;24.756;2023-05-07T04:13:55;10.85;;;9.38;;
78005;SDS011;67211;42.146;24.756;2023-05-07T04:16:21;10.98;;;8.70;;
78005;SDS011;67211;42.146;24.756;2023-05-07T04:18:46;11.45;;;9.82;;
78005;SDS011;67211;42.146;24.756;2023-05-07T04:21:15;13.10;;;9.35;;
78005;SDS011;67211;42.146;24.756;2023-05-07T04:23:41;12.45;;;9.32;;
78005;SDS011;67211;42.146;24.756;2023-05-07T04:26:06;13.18;;;10.00;;
78005;SDS011;67211;42.146;24.756;2023-05-07T04:28:32;12.10;;;9.00;;
78005;SDS011;67211;42.146;24.756;2023-05-07T04:30:57;10.25;;;8.63;;
78005;SDS011;67211;42.146;24.756;2023-05-07T04:33:23;10.90;;;9.05;;
78005;SDS011;67211;42.146;24.756;2023-05-07T04:35:48;9.52;;;8.30;;
78005;SDS011;67211;42.146;24.756;2023-05-07T04:38:14;10.63;;;8.52;;
78005;SDS011;67211;42.146;24.756;2023-05-07T04:40:39;13.60;;;8.77;;
78005;SDS011;67211;42.146;24.756;2023-05-07T04:43:06;9.68;;;8.25;;
78005;SDS011;67211;42.146;24.756;2023-05-07T04:45:32;10.30;;;7.82;;
78005;SDS011;67211;42.146;24.756;2023-05-07T04:47:57;12.02;;;8.23;;
78005;SDS011;67211;42.146;24.756;2023-05-07T04:50:23;9.55;;;7.85;;
78005;SDS011;67211;42.146;24.756;2023-05-07T04:52:49;10.20;;;8.90;;
78005;SDS011;67211;42.146;24.756;2023-05-07T04:55:15;11.35;;;8.00;;
78005;SDS011;67211;42.146;24.756;2023-05-07T04:57:40;13.52;;;8.30;;
78005;SDS011;67211;42.146;24.756;2023-05-07T05:00:06;9.93;;;8.20;;
78005;SDS011;67211;42.146;24.756;2023-05-07T05:02:33;11.57;;;8.32;;
78005;SDS011;67211;42.146;24.756;2023-05-07T05:04:59;12.55;;;8.45;;
78005;SDS011;67211;42.146;24.756;2023-05-07T05:07:26;12.75;;;8.50;;
78005;SDS011;67211;42.146;24.756;2023-05-07T05:09:51;10.48;;;8.13;;
78005;SDS011;67211;42.146;24.756;2023-05-07T05:12:17;12.70;;;8.85;;
78005;SDS011;67211;42.146;24.756;2023-05-07T05:14:42;9.18;;;7.43;;
78005;SDS011;67211;42.146;24.756;2023-05-07T05:17:08;10.25;;;7.80;;
78005;SDS011;67211;42.146;24.756;2023-05-07T05:19:33;10.23;;;8.15;;
78005;SDS011;67211;42.146;24.756;2023-05-07T05:21:58;11.32;;;7.25;;
78005;SDS011;67211;42.146;24.756;2023-05-07T05:24:26;9.68;;;7.43;;
78005;SDS011;67211;42.146;24.756;2023-05-07T05:26:52;8.98;;;7.25;;
78005;SDS011;67211;42.146;24.756;2023-05-07T05:29:18;9.77;;;6.88;;
78005;SDS011;67211;42.146;24.756;2023-05-07T05:31:43;12.60;;;8.32;;
78005;SDS011;67211;42.146;24.756;2023-05-07T05:34:09;10.43;;;7.20;;
78005;SDS011;67211;42.146;24.756;2023-05-07T05:36:34;6.95;;;6.22;;
78005;SDS011;67211;42.146;24.756;2023-05-07T05:38:59;9.48;;;6.90;;
78005;SDS011;67211;42.146;24.756;2023-05-07T05:41:25;10.68;;;6.60;;
78005;SDS011;67211;42.146;24.756;2023-05-07T05:43:50;12.85;;;7.28;;
78005;SDS011;67211;42.146;24.756;2023-05-07T05:46:16;9.35;;;7.00;;
78005;SDS011;67211;42.146;24.756;2023-05-07T05:48:41;9.57;;;6.45;;
78005;SDS011;67211;42.146;24.756;2023-05-07T05:51:08;13.30;;;7.25;;
78005;SDS011;67211;42.146;24.756;2023-05-07T05:53:33;10.73;;;7.07;;
78005;SDS011;67211;42.146;24.756;2023-05-07T05:55:59;9.75;;;6.32;;
78005;SDS011;67211;42.146;24.756;2023-05-07T05:58:24;8.25;;;6.60;;
78005;SDS011;67211;42.146;24.756;2023-05-07T06:00:50;8.85;;;6.47;;
78005;SDS011;67211;42.146;24.756;2023-05-07T06:03:17;10.52;;;7.60;;
78005;SDS011;67211;42.146;24.756;2023-05-07T06:05:43;8.98;;;6.60;;
78005;SDS011;67211;42.146;24.756;2023-05-07T06:08:08;11.05;;;7.25;;
78005;SDS011;67211;42.146;24.756;2023-05-07T06:10:35;10.38;;;6.75;;
78005;SDS011;67211;42.146;24.756;2023-05-07T06:13:03;10.50;;;7.50;;
78005;SDS011;67211;42.146;24.756;2023-05-07T06:15:28;11.98;;;7.28;;
78005;SDS011;67211;42.146;24.756;2023-05-07T06:17:54;10.48;;;7.70;;
78005;SDS011;67211;42.146;24.756;2023-05-07T06:20:22;11.57;;;7.35;;
78005;SDS011;67211;42.146;24.756;2023-05-07T06:22:48;10.82;;;7.68;;
78005;SDS011;67211;42.146;24.756;2023-05-07T06:25:13;10.60;;;7.90;;
78005;SDS011;67211;42.146;24.756;2023-05-07T06:27:39;10.35;;;7.65;;
78005;SDS011;67211;42.146;24.756;2023-05-07T06:30:06;9.90;;;6.95;;
78005;SDS011;67211;42.146;24.756;2023-05-07T06:32:32;8.98;;;6.80;;
78005;SDS011;67211;42.146;24.756;2023-05-07T06:34:57;11.00;;;6.93;;
78005;SDS011;67211;42.146;24.756;2023-05-07T06:37:23;10.00;;;7.13;;
78005;SDS011;67211;42.146;24.756;2023-05-07T06:39:48;9.93;;;7.43;;
78005;SDS011;67211;42.146;24.756;2023-05-07T06:42:14;11.35;;;7.07;;
78005;SDS011;67211;42.146;24.756;2023-05-07T06:44:39;8.63;;;7.35;;
78005;SDS011;67211;42.146;24.756;2023-05-07T06:47:05;8.23;;;6.65;;
78005;SDS011;67211;42.146;24.756;2023-05-07T06:49:31;8.45;;;6.85;;
78005;SDS011;67211;42.146;24.756;2023-05-07T06:51:56;10.63;;;6.78;;
78005;SDS011;67211;42.146;24.756;2023-05-07T06:54:22;8.93;;;6.32;;
78005;SDS011;67211;42.146;24.756;2023-05-07T06:56:48;8.50;;;6.13;;
78005;SDS011;67211;42.146;24.756;2023-05-07T06:59:13;9.05;;;6.28;;
78005;SDS011;67211;42.146;24.756;2023-05-07T07:01:38;8.57;;;6.15;;
78005;SDS011;67211;42.146;24.756;2023-05-07T07:04:04;8.27;;;6.03;;
78005;SDS011;67211;42.146;24.756;2023-05-07T07:06:29;10.02;;;7.07;;
78005;SDS011;67211;42.146;24.756;2023-05-07T07:08:56;8.85;;;6.72;;
78005;SDS011;67211;42.146;24.756;2023-05-07T07:11:22;9.65;;;6.60;;
78005;SDS011;67211;42.146;24.756;2023-05-07T07:13:48;7.50;;;6.05;;
78005;SDS011;67211;42.146;24.756;2023-05-07T07:16:13;10.25;;;6.38;;
78005;SDS011;67211;42.146;24.756;2023-05-07T07:18:38;9.45;;;6.78;;
78005;SDS011;67211;42.146;24.756;2023-05-07T07:21:04;10.73;;;6.95;;
78005;SDS011;67211;42.146;24.756;2023-05-07T07:23:30;10.18;;;7.43;;
78005;SDS011;67211;42.146;24.756;2023-05-07T07:25:55;8.50;;;6.38;;
78005;SDS011;67211;42.146;24.756;2023-05-07T07:28:21;11.27;;;6.22;;
78005;SDS011;67211;42.146;24.756;2023-05-07T07:30:46;9.63;;;6.57;;
78005;SDS011;67211;42.146;24.756;2023-05-07T07:33:12;9.07;;;6.47;;
78005;SDS011;67211;42.146;24.756;2023-05-07T07:35:37;10.30;;;6.00;;
78005;SDS011;67211;42.146;24.756;2023-05-07T07:38:03;10.23;;;6.90;;
78005;SDS011;67211;42.146;24.756;2023-05-07T07:40:28;8.80;;;6.82;;
78005;SDS011;67211;42.146;24.756;2023-05-07T07:42:54;9.18;;;6.32;;
78005;SDS011;67211;42.146;24.756;2023-05-07T07:45:20;9.27;;;6.20;;
78005;SDS011;67211;42.146;24.756;2023-05-07T07:47:45;10.63;;;6.82;;
78005;SDS011;67211;42.146;24.756;2023-05-07T07:50:11;9.52;;;7.20;;
78005;SDS011;67211;42.146;24.756;2023-05-07T07:52:37;9.10;;;6.05;;
78005;SDS011;67211;42.146;24.756;2023-05-07T07:55:02;8.25;;;6.25;;
78005;SDS011;67211;42.146;24.756;2023-05-07T07:57:29;10.45;;;7.20;;
78005;SDS011;67211;42.146;24.756;2023-05-07T07:59:54;9.70;;;6.78;;
78005;SDS011;67211;42.146;24.756;2023-05-07T08:02:20;8.65;;;6.47;;
78005;SDS011;67211;42.146;24.756;2023-05-07T08:04:45;8.35;;;6.80;;
78005;SDS011;67211;42.146;24.756;2023-05-07T08:07:11;8.27;;;7.18;;
78005;SDS011;67211;42.146;24.756;2023-05-07T08:09:37;7.38;;;5.63;;
78005;SDS011;67211;42.146;24.756;2023-05-07T08:12:03;10.57;;;7.50;;
78005;SDS011;67211;42.146;24.756;2023-05-07T08:14:30;7.80;;;6.13;;
78005;SDS011;67211;42.146;24.756;2023-05-07T08:16:55;7.97;;;6.07;;
78005;SDS011;67211;42.146;24.756;2023-05-07T08:19:21;8.98;;;5.88;;
78005;SDS011;67211;42.146;24.756;2023-05-07T08:21:47;9.70;;;5.80;;
78005;SDS011;67211;42.146;24.756;2023-05-07T08:24:13;7.13;;;5.18;;
78005;SDS011;67211;42.146;24.756;2023-05-07T08:26:39;6.95;;;4.60;;
78005;SDS011;67211;42.146;24.756;2023-05-07T08:29:05;6.78;;;4.78;;
78005;SDS011;67211;42.146;24.756;2023-05-07T08:31:30;5.20;;;4.20;;
78005;SDS011;67211;42.146;24.756;2023-05-07T08:33:56;6.22;;;3.78;;
78005;SDS011;67211;42.146;24.756;2023-05-07T08:36:22;5.70;;;4.03;;
78005;SDS011;67211;42.146;24.756;2023-05-07T08:38:47;7.60;;;3.38;;
78005;SDS011;67211;42.146;24.756;2023-05-07T08:41:14;9.65;;;3.40;;
78005;SDS011;67211;42.146;24.756;2023-05-07T08:43:40;5.07;;;3.53;;
78005;SDS011;67211;42.146;24.756;2023-05-07T08:46:07;6.55;;;3.47;;
78005;SDS011;67211;42.146;24.756;2023-05-07T08:48:34;5.95;;;3.58;;
78005;SDS011;67211;42.146;24.756;2023-05-07T08:50:59;5.28;;;3.83;;
78005;SDS011;67211;42.146;24.756;2023-05-07T08:53:25;4.97;;;3.83;;
78005;SDS011;67211;42.146;24.756;2023-05-07T08:55:50;6.20;;;3.60;;
78005;SDS011;67211;42.146;24.756;2023-05-07T08:58:16;5.53;;;3.40;;
78005;SDS011;67211;42.146;24.756;2023-05-07T09:00:41;4.85;;;3.60;;
78005;SDS011;67211;42.146;24.756;2023-05-07T09:03:07;4.88;;;3.50;;
78005;SDS011;67211;42.146;24.756;2023-05-07T09:05:32;4.68;;;2.75;;
78005;SDS011;67211;42.146;24.756;2023-05-07T09:08:05;5.55;;;3.10;;
78005;SDS011;67211;42.146;24.756;2023-05-07T09:10:34;4.00;;;2.60;;
78005;SDS011;67211;42.146;24.756;2023-05-07T09:12:59;4.57;;;2.83;;
78005;SDS011;67211;42.146;24.756;2023-05-07T09:15:26;5.35;;;3.03;;
78005;SDS011;67211;42.146;24.756;2023-05-07T09:17:51;4.65;;;2.88;;
78005;SDS011;67211;42.146;24.756;2023-05-07T09:20:18;5.25;;;2.53;;
78005;SDS011;67211;42.146;24.756;2023-05-07T09:22:43;5.65;;;2.78;;
78005;SDS011;67211;42.146;24.756;2023-05-07T09:25:09;4.95;;;2.35;;
78005;SDS011;67211;42.146;24.756;2023-05-07T09:27:34;3.70;;;1.98;;
78005;SDS011;67211;42.146;24.756;2023-05-07T09:30:03;4.50;;;2.78;;
78005;SDS011;67211;42.146;24.756;2023-05-07T09:32:33;6.65;;;3.30;;
78005;SDS011;67211;42.146;24.756;2023-05-07T09:34:59;4.80;;;2.75;;
78005;SDS011;67211;42.146;24.756;2023-05-07T09:37:25;5.13;;;2.72;;
78005;SDS011;67211;42.146;24.756;2023-05-07T09:39:51;3.97;;;2.60;;
78005;SDS011;67211;42.146;24.756;2023-05-07T09:42:22;5.38;;;3.10;;
78005;SDS011;67211;42.146;24.756;2023-05-07T09:44:48;5.32;;;3.53;;
78005;SDS011;67211;42.146;24.756;2023-05-07T09:47:15;5.40;;;3.22;;
78005;SDS011;67211;42.146;24.756;2023-05-07T09:49:43;5.80;;;3.65;;
78005;SDS011;67211;42.146;24.756;2023-05-07T09:54:38;4.45;;;2.80;;
78005;SDS011;67211;42.146;24.756;2023-05-07T09:57:04;5.53;;;3.08;;
78005;SDS011;67211;42.146;24.756;2023-05-07T09:59:31;6.47;;;3.38;;
78005;SDS011;67211;42.146;24.756;2023-05-07T10:01:57;6.22;;;3.20;;
78005;SDS011;67211;42.146;24.756;2023-05-07T10:04:24;4.95;;;3.03;;
78005;SDS011;67211;42.146;24.756;2023-05-07T10:06:51;5.68;;;3.20;;
78005;SDS011;67211;42.146;24.756;2023-05-07T10:09:16;4.97;;;3.15;;
78005;SDS011;67211;42.146;24.756;2023-05-07T10:11:43;4.65;;;3.30;;
78005;SDS011;67211;42.146;24.756;2023-05-07T10:14:08;4.20;;;3.00;;
78005;SDS011;67211;42.146;24.756;2023-05-07T10:16:35;7.00;;;3.42;;
78005;SDS011;67211;42.146;24.756;2023-05-07T10:19:04;5.75;;;2.83;;
78005;SDS011;67211;42.146;24.756;2023-05-07T10:24:12;4.43;;;2.97;;
78005;SDS011;67211;42.146;24.756;2023-05-07T10:26:41;5.88;;;3.05;;
78005;SDS011;67211;42.146;24.756;2023-05-07T10:29:12;6.05;;;3.22;;
78005;SDS011;67211;42.146;24.756;2023-05-07T10:32:05;3.90;;;2.90;;
78005;SDS011;67211;42.146;24.756;2023-05-07T10:34:42;5.28;;;3.28;;
78005;SDS011;67211;42.146;24.756;2023-05-07T10:37:10;5.32;;;3.40;;
78005;SDS011;67211;42.146;24.756;2023-05-07T10:39:36;5.30;;;3.25;;
78005;SDS011;67211;42.146;24.756;2023-05-07T10:42:09;4.07;;;2.92;;
78005;SDS011;67211;42.146;24.756;2023-05-07T10:44:37;5.60;;;3.00;;
78005;SDS011;67211;42.146;24.756;2023-05-07T10:47:13;4.47;;;2.58;;
78005;SDS011;67211;42.146;24.756;2023-05-07T10:54:41;3.70;;;2.85;;
78005;SDS011;67211;42.146;24.756;2023-05-07T11:00:00;4.40;;;2.72;;
78005;SDS011;67211;42.146;24.756;2023-05-07T11:05:23;5.82;;;2.75;;
78005;SDS011;67211;42.146;24.756;2023-05-07T11:08:02;4.85;;;2.80;;
78005;SDS011;67211;42.146;24.756;2023-05-07T11:13:16;4.10;;;2.85;;
78005;SDS011;67211;42.146;24.756;2023-05-07T11:15:43;3.63;;;2.67;;
78005;SDS011;67211;42.146;24.756;2023-05-07T11:18:10;4.80;;;3.03;;
78005;SDS011;67211;42.146;24.756;2023-05-07T11:26:18;4.18;;;2.65;;
78005;SDS011;67211;42.146;24.756;2023-05-07T11:28:43;5.18;;;2.90;;
78005;SDS011;67211;42.146;24.756;2023-05-07T11:31:10;5.63;;;2.60;;
78005;SDS011;67211;42.146;24.756;2023-05-07T11:33:37;4.45;;;2.50;;
78005;SDS011;67211;42.146;24.756;2023-05-07T11:36:03;4.70;;;3.25;;
78005;SDS011;67211;42.146;24.756;2023-05-07T11:38:35;4.75;;;3.75;;
78005;SDS011;67211;42.146;24.756;2023-05-07T11:41:01;5.30;;;3.28;;
78005;SDS011;67211;42.146;24.756;2023-05-07T11:43:29;5.43;;;3.95;;
78005;SDS011;67211;42.146;24.756;2023-05-07T11:45:55;3.63;;;2.58;;
78005;SDS011;67211;42.146;24.756;2023-05-07T11:53:24;4.75;;;2.63;;
78005;SDS011;67211;42.146;24.756;2023-05-07T11:55:57;4.18;;;2.72;;
78005;SDS011;67211;42.146;24.756;2023-05-07T11:58:23;4.95;;;3.13;;
78005;SDS011;67211;42.146;24.756;2023-05-07T12:00:49;4.57;;;2.70;;
78005;SDS011;67211;42.146;24.756;2023-05-07T12:03:15;4.32;;;3.08;;
78005;SDS011;67211;42.146;24.756;2023-05-07T12:05:41;4.13;;;2.95;;
78005;SDS011;67211;42.146;24.756;2023-05-07T12:08:07;4.78;;;3.20;;
78005;SDS011;67211;42.146;24.756;2023-05-07T12:10:32;4.47;;;3.33;;
78005;SDS011;67211;42.146;24.756;2023-05-07T12:12:58;5.45;;;2.97;;
78005;SDS011;67211;42.146;24.756;2023-05-07T12:15:23;5.90;;;3.20;;
78005;SDS011;67211;42.146;24.756;2023-05-07T12:17:48;6.38;;;3.10;;
78005;SDS011;67211;42.146;24.756;2023-05-07T12:20:14;6.30;;;3.00;;
78005;SDS011;67211;42.146;24.756;2023-05-07T12:22:40;4.80;;;3.22;;
78005;SDS011;67211;42.146;24.756;2023-05-07T12:25:06;5.82;;;3.75;;
78005;SDS011;67211;42.146;24.756;2023-05-07T12:27:31;5.30;;;3.95;;
78005;SDS011;67211;42.146;24.756;2023-05-07T12:29:57;5.57;;;3.15;;
78005;SDS011;67211;42.146;24.756;2023-05-07T12:32:23;4.00;;;2.83;;
78005;SDS011;67211;42.146;24.756;2023-05-07T12:34:49;5.60;;;3.03;;
78005;SDS011;67211;42.146;24.756;2023-05-07T12:37:15;4.13;;;2.70;;
78005;SDS011;67211;42.146;24.756;2023-05-07T12:39:47;4.40;;;3.10;;
78005;SDS011;67211;42.146;24.756;2023-05-07T12:42:16;5.40;;;3.00;;
78005;SDS011;67211;42.146;24.756;2023-05-07T12:44:43;6.25;;;3.03;;
78005;SDS011;67211;42.146;24.756;2023-05-07T12:47:10;6.22;;;3.38;;
78005;SDS011;67211;42.146;24.756;2023-05-07T12:49:35;4.45;;;2.80;;
78005;SDS011;67211;42.146;24.756;2023-05-07T12:52:03;4.93;;;3.13;;
78005;SDS011;67211;42.146;24.756;2023-05-07T12:57:05;4.93;;;2.90;;
78005;SDS011;67211;42.146;24.756;2023-05-07T12:59:35;5.43;;;3.20;;
78005;SDS011;67211;42.146;24.756;2023-05-07T13:02:01;4.65;;;2.70;;
78005;SDS011;67211;42.146;24.756;2023-05-07T13:04:27;4.05;;;2.60;;
78005;SDS011;67211;42.146;24.756;2023-05-07T13:06:52;5.80;;;3.13;;
78005;SDS011;67211;42.146;24.756;2023-05-07T13:09:18;5.68;;;3.40;;
78005;SDS011;67211;42.146;24.756;2023-05-07T13:11:43;4.68;;;3.05;;
78005;SDS011;67211;42.146;24.756;2023-05-07T13:14:10;3.80;;;2.88;;
78005;SDS011;67211;42.146;24.756;2023-05-07T13:16:35;5.15;;;3.40;;
78005;SDS011;67211;42.146;24.756;2023-05-07T13:19:01;6.28;;;2.70;;
78005;SDS011;67211;42.146;24.756;2023-05-07T13:21:26;4.53;;;2.83;;
78005;SDS011;67211;42.146;24.756;2023-05-07T13:23:52;6.45;;;3.13;;
78005;SDS011;67211;42.146;24.756;2023-05-07T13:26:17;4.72;;;2.92;;
78005;SDS011;67211;42.146;24.756;2023-05-07T13:28:43;5.10;;;2.70;;
78005;SDS011;67211;42.146;24.756;2023-05-07T13:31:08;4.15;;;2.85;;
78005;SDS011;67211;42.146;24.756;2023-05-07T13:33:34;5.90;;;2.95;;
78005;SDS011;67211;42.146;24.756;2023-05-07T13:36:00;4.38;;;2.65;;
78005;SDS011;67211;42.146;24.756;2023-05-07T13:38:25;6.28;;;3.10;;
78005;SDS011;67211;42.146;24.756;2023-05-07T13:40:51;5.28;;;2.80;;
78005;SDS011;67211;42.146;24.756;2023-05-07T13:43:16;3.80;;;2.55;;
78005;SDS011;67211;42.146;24.756;2023-05-07T13:45:43;4.35;;;2.50;;
78005;SDS011;67211;42.146;24.756;2023-05-07T13:48:09;3.58;;;2.22;;
78005;SDS011;67211;42.146;24.756;2023-05-07T13:50:34;3.78;;;2.10;;
78005;SDS011;67211;42.146;24.756;2023-05-07T13:53:00;4.85;;;2.78;;
78005;SDS011;67211;42.146;24.756;2023-05-07T13:55:25;4.43;;;2.42;;
78005;SDS011;67211;42.146;24.756;2023-05-07T13:57:58;4.47;;;2.53;;
78005;SDS011;67211;42.146;24.756;2023-05-07T14:00:24;3.97;;;2.53;;
78005;SDS011;67211;42.146;24.756;2023-05-07T14:02:51;4.53;;;2.72;;
78005;SDS011;67211;42.146;24.756;2023-05-07T14:05:16;5.03;;;2.70;;
78005;SDS011;67211;42.146;24.756;2023-05-07T14:07:42;4.18;;;2.30;;
78005;SDS011;67211;42.146;24.756;2023-05-07T14:10:07;5.30;;;2.35;;
78005;SDS011;67211;42.146;24.756;2023-05-07T14:12:34;3.95;;;2.20;;
78005;SDS011;67211;42.146;24.756;2023-05-07T14:15:00;3.88;;;2.53;;
78005;SDS011;67211;42.146;24.756;2023-05-07T14:17:25;4.05;;;2.13;;
78005;SDS011;67211;42.146;24.756;2023-05-07T14:19:52;3.65;;;2.25;;
78005;SDS011;67211;42.146;24.756;2023-05-07T14:22:19;3.10;;;2.05;;
78005;SDS011;67211;42.146;24.756;2023-05-07T14:24:46;3.90;;;2.20;;
78005;SDS011;67211;42.146;24.756;2023-05-07T14:27:11;5.32;;;2.10;;
78005;SDS011;67211;42.146;24.756;2023-05-07T14:29:37;4.13;;;2.35;;
78005;SDS011;67211;42.146;24.756;2023-05-07T14:32:03;4.55;;;2.30;;
78005;SDS011;67211;42.146;24.756;2023-05-07T14:34:28;3.85;;;2.25;;
78005;SDS011;67211;42.146;24.756;2023-05-07T14:36:54;4.22;;;2.00;;
78005;SDS011;67211;42.146;24.756;2023-05-07T14:39:20;3.25;;;2.20;;
78005;SDS011;67211;42.146;24.756;2023-05-07T14:41:46;4.82;;;2.28;;
78005;SDS011;67211;42.146;24.756;2023-05-07T14:44:11;4.15;;;1.92;;
78005;SDS011;67211;42.146;24.756;2023-05-07T14:46:36;3.97;;;2.10;;
78005;SDS011;67211;42.146;24.756;2023-05-07T14:49:02;4.38;;;2.10;;
78005;SDS011;67211;42.146;24.756;2023-05-07T14:51:27;3.75;;;2.05;;
78005;SDS011;67211;42.146;24.756;2023-05-07T14:53:53;4.22;;;2.50;;
78005;SDS011;67211;42.146;24.756;2023-05-07T14:56:19;5.30;;;2.10;;